createdAt,value
2022-08-02T00:00:55.689Z,2.00
2022-08-02T00:03:23.753Z,2.50
2022-08-02T00:05:53.016Z,2.00
2022-08-02T00:08:20.544Z,2.60
2022-08-02T00:10:47.232Z,2.40
2022-08-02T00:13:13.873Z,3.00
2022-08-02T00:15:40.635Z,2.00
2022-08-02T00:18:07.354Z,3.00
2022-08-02T00:20:34.054Z,2.40
2022-08-02T00:23:00.777Z,1.60
2022-08-02T00:25:27.510Z,3.00
2022-08-02T00:27:54.169Z,2.00
2022-08-02T00:30:20.775Z,4.00
2022-08-02T00:32:47.416Z,1.00
2022-08-02T00:35:14.109Z,3.00
2022-08-02T00:37:41.384Z,3.00
2022-08-02T00:40:09.265Z,3.00
2022-08-02T00:42:35.967Z,2.00
2022-08-02T00:45:02.701Z,2.40
2022-08-02T00:47:29.365Z,1.60
2022-08-02T00:49:56.007Z,2.00
2022-08-02T00:52:23.969Z,3.00
2022-08-02T00:54:50.860Z,2.60
2022-08-02T00:57:17.539Z,2.00
2022-08-02T00:59:44.153Z,2.25
2022-08-02T01:02:11.198Z,2.50
2022-08-02T01:04:38.102Z,2.00
2022-08-02T01:07:12.586Z,2.00
2022-08-02T01:09:43.902Z,2.00
2022-08-02T01:12:11.261Z,3.00
2022-08-02T01:14:38.649Z,3.00
2022-08-02T01:17:23.226Z,3.00
2022-08-02T01:20:08.792Z,2.40
2022-08-02T01:23:01.576Z,2.00
2022-08-02T01:25:48.005Z,2.67
2022-08-02T01:28:17.663Z,3.00
2022-08-02T01:30:45.805Z,3.40
2022-08-02T01:33:17.185Z,1.50
2022-08-02T01:35:49.298Z,2.00
2022-08-02T01:38:21.720Z,3.00
2022-08-02T01:40:49.693Z,2.60
2022-08-02T01:43:17.457Z,2.00
2022-08-02T01:45:45.284Z,3.00
2022-08-02T01:48:13.348Z,2.00
2022-08-02T01:50:41.252Z,3.00
2022-08-02T01:53:09.598Z,2.40
2022-08-02T01:55:57.125Z,2.40
2022-08-02T01:58:27.215Z,1.60
2022-08-02T02:00:56.063Z,2.75
2022-08-02T02:03:25.309Z,2.00
2022-08-02T02:05:54.261Z,2.00
2022-08-02T02:08:27.243Z,2.00
2022-08-02T02:10:55.134Z,3.00
2022-08-02T02:13:28.771Z,2.75
2022-08-02T02:16:03.686Z,1.25
2022-08-02T02:18:30.999Z,3.00
2022-08-02T02:20:57.795Z,3.00
2022-08-02T02:23:25.136Z,1.00
2022-08-02T02:25:55.639Z,2.00
2022-08-02T02:28:29.046Z,3.00
2022-08-02T02:30:59.581Z,3.00
2022-08-02T02:33:29.439Z,3.00
2022-08-02T02:35:58.354Z,2.50
2022-08-02T02:38:27.560Z,3.00
2022-08-02T02:40:56.662Z,3.00
2022-08-02T02:43:25.331Z,3.33
2022-08-02T02:45:53.360Z,2.40
2022-08-02T02:48:20.373Z,3.00
2022-08-02T02:50:48.012Z,3.00
2022-08-02T02:53:17.296Z,2.60
2022-08-02T02:56:02.006Z,2.60
2022-08-02T02:58:30.183Z,2.50
2022-08-02T03:01:15.459Z,4.20
2022-08-02T03:03:44.071Z,3.00
2022-08-02T03:06:15.627Z,2.40
2022-08-02T03:08:42.924Z,3.00
2022-08-02T03:11:10.284Z,1.40
2022-08-02T03:13:37.755Z,2.00
2022-08-02T03:16:04.953Z,2.00
2022-08-02T03:18:36.132Z,2.00
2022-08-02T03:21:03.786Z,2.60
2022-08-02T03:23:30.492Z,2.20
2022-08-02T03:25:57.436Z,3.00
2022-08-02T03:28:24.202Z,2.00
2022-08-02T03:30:51.022Z,2.40
2022-08-02T03:33:18.734Z,2.50
2022-08-02T03:35:46.513Z,2.75
2022-08-02T03:38:14.077Z,2.00
2022-08-02T03:40:43.228Z,2.00
2022-08-02T03:43:10.100Z,2.00
2022-08-02T03:45:38.161Z,3.00
2022-08-02T03:48:29.427Z,2.00
2022-08-02T03:50:52.185Z,3.00
2022-08-02T03:53:20.419Z,2.00
2022-08-02T03:55:47.547Z,2.00
2022-08-02T03:58:21.079Z,1.20
2022-08-02T04:00:48.358Z,2.00
2022-08-02T04:03:20.085Z,3.00
2022-08-02T04:06:03.484Z,3.00
2022-08-02T04:08:35.086Z,2.60
2022-08-02T04:11:22.940Z,2.40
2022-08-02T04:13:49.856Z,3.75
2022-08-02T04:16:20.179Z,2.40
2022-08-02T04:18:51.964Z,2.60
2022-08-02T04:21:20.755Z,1.80
2022-08-02T04:23:48.934Z,4.00
2022-08-02T04:26:15.843Z,2.00
2022-08-02T04:28:44.200Z,2.25
2022-08-02T04:31:11.147Z,4.00
2022-08-02T04:33:38.403Z,2.00
2022-08-02T04:36:05.948Z,3.00
2022-08-02T04:38:32.732Z,2.00
2022-08-02T04:40:59.475Z,2.75
2022-08-02T04:43:26.130Z,3.00
2022-08-02T04:45:53.703Z,2.50
2022-08-02T04:48:20.778Z,2.25
2022-08-02T04:50:47.650Z,3.00
2022-08-02T04:53:14.332Z,3.00
2022-08-02T04:55:41.050Z,2.75
2022-08-02T04:58:30.167Z,2.00
2022-08-02T05:00:54.403Z,2.00
2022-08-02T05:03:21.131Z,1.80
2022-08-02T05:05:47.870Z,2.40
2022-08-02T05:08:14.610Z,3.00
2022-08-02T05:10:41.305Z,3.00
2022-08-02T05:13:07.944Z,1.40
2022-08-02T05:15:34.640Z,3.60
2022-08-02T05:18:01.389Z,2.00
2022-08-02T05:20:28.136Z,1.50
2022-08-02T05:22:54.847Z,2.00
2022-08-02T05:25:21.566Z,3.00
2022-08-02T05:27:48.290Z,2.00
2022-08-02T05:30:14.993Z,2.00
2022-08-02T05:32:47.895Z,1.20
2022-08-02T05:35:17.976Z,2.60
2022-08-02T05:37:44.580Z,2.80
2022-08-02T05:40:15.076Z,2.00
2022-08-02T05:42:42.816Z,3.00
2022-08-02T05:45:09.944Z,2.60
2022-08-02T05:47:37.091Z,2.40
2022-08-02T05:50:04.491Z,3.00
2022-08-02T05:52:43.739Z,2.00
2022-08-02T05:55:17.408Z,3.00
2022-08-02T05:57:58.119Z,3.00
2022-08-02T06:00:26.422Z,2.40
2022-08-02T06:02:59.590Z,2.00
2022-08-02T06:05:27.193Z,3.00
2022-08-02T06:07:55.325Z,4.00
2022-08-02T06:10:22.459Z,2.00
2022-08-02T06:12:54.785Z,3.00
2022-08-02T06:15:21.616Z,3.00
2022-08-02T06:17:48.328Z,1.80
2022-08-02T06:20:17.860Z,2.60
2022-08-02T06:22:45.207Z,2.75
2022-08-02T06:25:50.163Z,2.75
2022-08-02T06:28:01.180Z,2.00
2022-08-02T06:30:28.372Z,3.00
2022-08-02T06:32:55.531Z,3.00
2022-08-02T06:35:22.630Z,2.20
2022-08-02T06:37:58.956Z,2.40
2022-08-02T06:40:41.258Z,3.00
2022-08-02T06:43:18.793Z,3.75
2022-08-02T06:45:45.805Z,2.00
2022-08-02T06:48:12.473Z,2.20
2022-08-02T06:50:39.863Z,2.60
2022-08-02T06:53:07.111Z,2.00
2022-08-02T06:55:43.431Z,2.50
2022-08-02T06:58:11.875Z,2.80
2022-08-02T07:00:39.021Z,1.40
2022-08-02T07:03:05.747Z,2.50
2022-08-02T07:05:32.443Z,3.00
2022-08-02T07:07:59.055Z,3.00
2022-08-02T07:10:25.719Z,4.00
2022-08-02T07:12:52.320Z,3.00
2022-08-02T07:15:18.929Z,2.60
2022-08-02T07:17:45.499Z,3.00
2022-08-02T07:20:13.630Z,3.00
2022-08-02T07:22:40.242Z,3.60
2022-08-02T07:25:07.136Z,3.00
2022-08-02T07:27:33.899Z,3.00
2022-08-02T07:30:00.702Z,3.00
2022-08-02T07:32:28.718Z,3.00
2022-08-02T07:34:55.997Z,4.00
2022-08-02T07:37:53.527Z,3.00
2022-08-02T07:40:14.917Z,2.40
2022-08-02T07:42:42.965Z,2.80
2022-08-02T07:45:10.178Z,3.40
2022-08-02T07:47:40.760Z,3.00
2022-08-02T07:50:07.943Z,3.20
2022-08-02T07:52:34.800Z,1.50
2022-08-02T07:55:01.503Z,2.00
2022-08-02T07:57:28.050Z,3.00
2022-08-02T07:59:54.669Z,2.75
2022-08-02T08:02:21.307Z,3.00
2022-08-02T08:04:47.960Z,2.00
2022-08-02T08:07:14.513Z,1.60
2022-08-02T08:09:45.348Z,2.40
2022-08-02T08:12:12.627Z,3.00
2022-08-02T08:14:39.973Z,3.00
2022-08-02T08:17:06.793Z,3.00
2022-08-02T08:19:43.937Z,3.00
2022-08-02T08:22:18.501Z,3.00
2022-08-02T08:24:45.504Z,2.00
2022-08-02T08:27:14.859Z,3.00
2022-08-02T08:29:42.494Z,3.00
2022-08-02T08:32:14.148Z,2.60
2022-08-02T08:34:42.801Z,2.00
2022-08-02T08:37:09.440Z,3.00
2022-08-02T08:39:58.239Z,3.00
2022-08-02T08:42:29.066Z,2.40
2022-08-02T08:44:57.362Z,3.00
2022-08-02T08:47:33.791Z,4.00
2022-08-02T08:50:03.399Z,2.00
2022-08-02T08:52:33.216Z,1.40
2022-08-02T08:54:59.995Z,3.00
2022-08-02T08:57:29.747Z,3.00
2022-08-02T08:59:56.696Z,1.60
2022-08-02T09:02:27.724Z,1.60
2022-08-02T09:04:55.482Z,2.00
2022-08-02T09:07:22.815Z,2.50
2022-08-02T09:09:49.451Z,2.00
2022-08-02T09:12:16.743Z,2.00
2022-08-02T09:14:43.330Z,2.00
2022-08-02T09:17:12.745Z,2.00
2022-08-02T09:19:46.230Z,2.00
2022-08-02T09:22:15.424Z,2.00
2022-08-02T09:24:50.039Z,2.80
2022-08-02T09:27:17.888Z,3.00
2022-08-02T09:30:12.463Z,2.00
2022-08-02T09:32:45.987Z,2.00
2022-08-02T09:35:12.638Z,1.50
2022-08-02T09:37:39.443Z,2.00
2022-08-02T09:40:07.068Z,2.00
2022-08-02T09:42:34.439Z,1.40
2022-08-02T09:45:01.632Z,2.60
2022-08-02T09:47:29.024Z,2.75
2022-08-02T09:49:58.145Z,2.50
2022-08-02T09:52:42.960Z,2.00
2022-08-02T09:55:11.613Z,2.40
2022-08-02T09:57:38.756Z,2.00
2022-08-02T10:00:16.122Z,2.00
2022-08-02T10:03:03.318Z,2.00
2022-08-02T10:05:35.618Z,1.60
2022-08-02T10:08:09.852Z,2.40
2022-08-02T10:10:36.480Z,1.40
2022-08-02T10:13:03.219Z,1.50
2022-08-02T10:15:29.868Z,3.20
2022-08-02T10:17:56.695Z,1.60
2022-08-02T10:20:23.707Z,2.00
2022-08-02T10:22:51.187Z,2.00
2022-08-02T10:25:19.164Z,1.75
2022-08-02T10:28:04.899Z,3.00
2022-08-02T10:30:33.537Z,2.60
2022-08-02T10:33:01.355Z,2.25
2022-08-02T10:35:32.459Z,3.00
2022-08-02T10:38:05.136Z,2.60
2022-08-02T10:41:03.760Z,2.80
2022-08-02T10:43:47.001Z,2.00
2022-08-02T10:46:23.773Z,2.80
2022-08-02T10:52:01.879Z,2.25
2022-08-02T10:54:31.672Z,2.50
2022-08-02T10:57:01.743Z,4.00
2022-08-02T10:59:32.462Z,3.00
2022-08-02T11:02:03.309Z,1.75
2022-08-02T11:04:30.820Z,1.75
2022-08-02T11:07:26.904Z,1.40
2022-08-02T11:09:53.462Z,2.00
2022-08-02T11:12:20.987Z,2.00
2022-08-02T11:14:59.119Z,2.00
2022-08-02T11:17:28.971Z,3.00
2022-08-02T11:20:10.928Z,3.00
2022-08-02T11:22:38.000Z,2.00
2022-08-02T11:25:23.230Z,3.00
2022-08-02T11:27:49.818Z,3.00
2022-08-02T11:30:16.563Z,1.60
2022-08-02T11:32:43.220Z,1.75
2022-08-02T11:35:10.231Z,2.00
2022-08-02T11:37:40.846Z,2.00
2022-08-02T11:40:19.848Z,2.20
2022-08-02T11:42:51.079Z,1.20
2022-08-02T11:45:21.122Z,1.40
2022-08-02T11:47:49.946Z,2.00
2022-08-02T11:50:17.656Z,2.20
2022-08-02T11:52:44.634Z,2.50
2022-08-02T11:55:11.637Z,2.00
2022-08-02T11:58:29.515Z,2.50
2022-08-02T12:01:48.827Z,0.25
2022-08-02T12:07:34.601Z,2.50
2022-08-02T12:10:05.778Z,3.00
2022-08-02T12:12:32.823Z,2.00
2022-08-02T12:15:12.715Z,1.00
2022-08-02T12:17:58.018Z,2.00
2022-08-02T12:20:35.416Z,3.00
2022-08-02T12:23:05.312Z,2.00
2022-08-02T12:25:44.709Z,3.00
2022-08-02T12:28:30.899Z,1.40
2022-08-02T12:31:08.695Z,2.50
2022-08-02T12:33:54.645Z,1.00
2022-08-02T12:36:31.001Z,2.20
2022-08-02T12:39:09.588Z,2.80
2022-08-02T12:41:38.685Z,3.00
2022-08-02T12:44:28.308Z,2.00
2022-08-02T12:47:16.381Z,2.50
2022-08-02T12:49:48.708Z,1.40
2022-08-02T12:52:27.769Z,1.33
2022-08-02T12:54:58.990Z,2.00
2022-08-02T12:57:29.178Z,2.25
2022-08-02T13:00:01.478Z,2.00
2022-08-02T13:02:50.896Z,2.00
2022-08-02T13:05:18.574Z,2.80
2022-08-02T13:07:45.164Z,2.00
2022-08-02T13:10:11.898Z,1.25
2022-08-02T13:12:39.887Z,2.00
2022-08-02T13:15:12.671Z,1.60
2022-08-02T13:17:56.843Z,2.00
2022-08-02T13:20:23.457Z,2.00
2022-08-02T13:22:52.915Z,1.80
2022-08-02T13:25:23.305Z,2.00
2022-08-02T13:27:50.641Z,1.67
2022-08-02T13:30:17.228Z,2.00
2022-08-02T13:32:44.158Z,1.00
2022-08-02T13:35:18.087Z,2.00
2022-08-02T13:37:45.648Z,2.00
2022-08-02T13:40:21.709Z,2.00
2022-08-02T13:42:48.649Z,1.50
2022-08-02T13:45:15.623Z,1.75
2022-08-02T13:48:03.552Z,3.00
2022-08-02T13:50:30.443Z,1.60
2022-08-02T13:52:57.066Z,2.00
2022-08-02T13:55:24.423Z,1.60
2022-08-02T13:57:53.494Z,0.00
2022-08-02T14:00:34.840Z,1.75
2022-08-02T14:03:03.210Z,1.60
2022-08-02T14:05:47.123Z,0.25
2022-08-02T14:08:22.718Z,2.00
2022-08-02T14:10:55.808Z,2.60
2022-08-02T14:13:38.232Z,1.00
2022-08-02T14:16:30.409Z,1.00
2022-08-02T14:22:11.431Z,1.00
2022-08-02T14:24:42.556Z,1.00
2022-08-02T14:33:13.011Z,1.50
2022-08-02T14:35:39.658Z,3.00
2022-08-02T14:38:06.728Z,3.00
2022-08-02T14:40:33.385Z,1.40
2022-08-02T14:43:01.374Z,2.00
2022-08-02T14:45:39.938Z,1.00
2022-08-02T14:48:08.270Z,3.00
2022-08-02T14:50:34.906Z,2.25
2022-08-02T14:53:01.559Z,1.00
2022-08-02T14:55:28.181Z,1.50
2022-08-02T14:57:54.835Z,2.00
2022-08-02T15:00:21.454Z,2.00
2022-08-02T15:02:48.153Z,1.75
2022-08-02T15:05:15.281Z,2.00
2022-08-02T15:07:45.326Z,2.00
2022-08-02T15:10:14.494Z,2.00
2022-08-02T15:12:41.058Z,0.50
2022-08-02T15:15:07.830Z,1.75
2022-08-02T15:17:34.470Z,2.00
2022-08-02T15:20:23.957Z,1.40
2022-08-02T15:22:49.513Z,2.00
2022-08-02T15:25:18.853Z,2.00
2022-08-02T15:27:45.443Z,2.00
2022-08-02T15:30:12.297Z,2.00
2022-08-02T15:32:38.929Z,1.40
2022-08-02T15:35:06.200Z,0.60
2022-08-02T15:37:33.068Z,1.00
2022-08-02T15:40:00.127Z,1.00
2022-08-02T15:42:30.195Z,1.00
2022-08-02T15:44:57.768Z,1.00
2022-08-02T15:47:24.348Z,0.20
2022-08-02T15:49:51.017Z,2.00
2022-08-02T15:52:17.687Z,3.00
2022-08-02T15:54:44.250Z,1.00
2022-08-02T15:57:10.947Z,1.80
2022-08-02T15:59:37.563Z,1.00
2022-08-02T16:02:04.464Z,2.00
2022-08-02T16:04:31.153Z,2.60
2022-08-02T16:06:57.793Z,1.20
2022-08-02T16:09:28.248Z,3.00
2022-08-02T16:11:54.829Z,4.00
2022-08-02T16:14:21.473Z,3.00
2022-08-02T16:16:48.019Z,2.75
2022-08-02T16:19:47.653Z,3.20
2022-08-02T16:22:02.009Z,3.00
2022-08-02T16:24:28.655Z,3.40
2022-08-02T16:26:55.278Z,4.75
2022-08-02T16:29:21.915Z,5.00
2022-08-02T16:31:48.508Z,5.80
2022-08-02T16:34:15.699Z,6.00
2022-08-02T16:36:42.350Z,4.40
2022-08-02T16:39:09.015Z,5.00
2022-08-02T16:41:50.603Z,5.00
2022-08-02T16:44:29.165Z,4.60
2022-08-02T16:46:57.540Z,5.40
2022-08-02T16:50:05.648Z,5.50
2022-08-02T16:52:14.886Z,5.00
2022-08-02T16:54:41.478Z,5.00
2022-08-02T16:57:08.151Z,6.00
2022-08-02T16:59:41.843Z,5.25
2022-08-02T17:02:15.299Z,6.00
2022-08-02T17:04:45.454Z,4.20
2022-08-02T17:08:08.073Z,6.75
2022-08-02T17:10:03.880Z,7.00
2022-08-02T17:12:33.519Z,7.00
2022-08-02T17:15:05.513Z,7.25
2022-08-02T17:17:47.022Z,5.80
2022-08-02T17:20:14.967Z,8.00
2022-08-02T17:22:44.116Z,7.00
2022-08-02T17:25:13.626Z,7.00
2022-08-02T17:27:41.443Z,7.40
2022-08-02T17:30:10.777Z,7.00
2022-08-02T17:32:37.810Z,7.00
2022-08-02T17:35:06.391Z,7.80
2022-08-02T17:37:41.477Z,9.20
2022-08-02T17:40:11.575Z,8.00
2022-08-02T17:42:38.196Z,8.00
2022-08-02T17:45:16.529Z,6.60
2022-08-02T17:48:04.237Z,6.00
2022-08-02T17:50:30.910Z,8.20
2022-08-02T17:52:57.778Z,8.00
2022-08-02T17:55:24.487Z,7.00
2022-08-02T17:57:57.769Z,7.20
2022-08-02T18:00:38.076Z,7.40
2022-08-02T18:03:08.026Z,7.00
2022-08-02T18:05:40.271Z,9.50
2022-08-02T18:08:22.675Z,8.00
2022-08-02T18:10:49.994Z,6.80
2022-08-02T18:13:16.607Z,9.00
2022-08-02T18:15:45.813Z,9.00
2022-08-02T18:18:12.662Z,8.67
2022-08-02T18:20:39.203Z,8.20
2022-08-02T18:23:10.861Z,9.00
2022-08-02T18:25:45.884Z,7.50
2022-08-02T18:28:14.502Z,8.00
2022-08-02T18:30:41.776Z,9.50
2022-08-02T18:33:57.414Z,8.60
2022-08-02T18:35:55.816Z,7.50
2022-08-02T18:38:22.936Z,7.60
2022-08-02T18:40:50.927Z,9.00
2022-08-02T18:43:17.890Z,6.60
2022-08-02T18:46:07.159Z,8.80
2022-08-02T18:48:31.264Z,10.00
2022-08-02T18:50:57.875Z,9.00
2022-08-02T18:53:39.121Z,8.50
2022-08-02T18:56:10.567Z,9.00
2022-08-02T18:58:47.768Z,8.40
2022-08-02T19:01:15.043Z,8.50
2022-08-02T19:03:58.802Z,7.75
2022-08-02T19:06:27.430Z,9.00
2022-08-02T19:09:05.295Z,8.75
2022-08-02T19:11:35.202Z,8.00
2022-08-02T19:14:02.294Z,9.00
2022-08-02T19:16:36.650Z,10.00
2022-08-02T19:19:05.211Z,8.00
2022-08-02T19:22:17.468Z,8.00
2022-08-02T19:24:18.961Z,11.00
2022-08-02T19:26:51.086Z,12.00
2022-08-02T19:29:25.053Z,10.20
2022-08-02T19:32:40.613Z,10.60
2022-08-02T19:34:53.289Z,11.20
2022-08-02T19:37:19.818Z,10.00
2022-08-02T19:39:46.386Z,8.40
2022-08-02T19:42:14.902Z,9.20
2022-08-02T19:44:44.965Z,11.50
2022-08-02T19:47:12.278Z,11.00
2022-08-02T19:49:40.548Z,11.00
2022-08-02T19:52:21.714Z,10.00
2022-08-02T19:54:54.444Z,10.00
2022-08-02T19:57:23.363Z,10.50
2022-08-02T19:59:52.033Z,11.00
2022-08-02T20:02:19.561Z,10.00
2022-08-02T20:07:54.902Z,11.00
2022-08-02T20:10:24.859Z,10.00
2022-08-02T20:12:53.730Z,10.75
2022-08-02T20:15:21.827Z,11.50
2022-08-02T20:17:49.258Z,11.00
2022-08-02T20:20:17.089Z,10.00
2022-08-02T20:23:32.742Z,11.00
2022-08-02T20:25:50.215Z,12.40
2022-08-02T20:28:20.952Z,12.60
2022-08-02T20:30:48.636Z,9.75
2022-08-02T20:33:21.954Z,12.50
2022-08-02T20:35:49.499Z,11.60
2022-08-02T20:38:16.548Z,9.20
2022-08-02T20:40:43.879Z,10.75
2022-08-02T20:43:10.479Z,11.00
2022-08-02T20:45:37.304Z,10.25
2022-08-02T20:48:04.225Z,9.00
2022-08-02T20:50:49.257Z,10.00
2022-08-02T20:53:23.616Z,10.75
2022-08-02T20:55:53.658Z,10.00
2022-08-02T20:58:20.346Z,11.20
2022-08-02T21:00:54.156Z,9.00
2022-08-02T21:03:20.755Z,11.00
2022-08-02T21:05:54.831Z,10.60
2022-08-02T21:08:23.374Z,10.00
2022-08-02T21:10:51.959Z,10.00
2022-08-02T21:13:23.232Z,12.00
2022-08-02T21:15:50.470Z,10.00
2022-08-02T21:18:22.758Z,11.00
2022-08-02T21:21:03.706Z,11.25
2022-08-02T21:23:30.462Z,12.00
2022-08-02T21:26:03.137Z,12.00
2022-08-02T21:28:35.123Z,11.60
2022-08-02T21:31:10.698Z,11.40
2022-08-02T21:33:58.279Z,9.00
2022-08-02T21:36:30.663Z,11.25
2022-08-02T21:38:59.129Z,13.00
2022-08-02T21:41:39.773Z,13.50
2022-08-02T21:44:12.402Z,13.00
2022-08-02T21:46:39.029Z,11.00
2022-08-02T21:49:05.882Z,11.80
2022-08-02T21:51:34.174Z,11.60
2022-08-02T21:54:18.399Z,12.00
2022-08-02T21:56:46.140Z,12.50
2022-08-02T21:59:16.254Z,11.00
2022-08-02T22:01:52.667Z,11.00
2022-08-02T22:04:20.505Z,11.60
2022-08-02T22:06:49.191Z,13.50
2022-08-02T22:09:17.293Z,14.00
2022-08-02T22:11:44.714Z,12.00
2022-08-02T22:14:12.929Z,12.00
2022-08-02T22:16:39.562Z,13.00
2022-08-02T22:19:06.675Z,12.00
2022-08-02T22:21:33.712Z,13.00
2022-08-02T22:27:06.732Z,11.00
2022-08-02T22:29:34.852Z,11.75
2022-08-02T22:32:02.822Z,11.00
2022-08-02T22:34:51.914Z,13.40
2022-08-02T22:38:16.023Z,12.40
2022-08-02T22:40:08.740Z,13.00
2022-08-02T22:42:36.570Z,12.25
2022-08-02T22:45:07.278Z,13.20
2022-08-02T22:47:38.594Z,12.25
2022-08-02T22:50:05.698Z,13.60
2022-08-02T22:52:38.415Z,13.80
2022-08-02T22:55:05.179Z,14.20
2022-08-02T22:57:33.177Z,14.20
2022-08-02T22:58:54.320Z,11.00
2022-08-02T22:59:12.607Z,12.00
2022-08-02T23:00:22.278Z,13.50
2022-08-02T23:02:48.861Z,12.25
2022-08-02T23:05:15.501Z,12.00
2022-08-02T23:07:42.108Z,13.25
2022-08-02T23:10:08.742Z,15.00
2022-08-02T23:12:35.351Z,14.00
2022-08-02T23:15:02.044Z,13.00
2022-08-02T23:17:47.118Z,14.00
2022-08-02T23:20:13.885Z,14.40
2022-08-02T23:22:40.635Z,16.00
2022-08-02T23:25:07.754Z,14.00
2022-08-02T23:27:34.770Z,14.80
2022-08-02T23:30:01.863Z,14.00
2022-08-02T23:32:28.651Z,15.50
2022-08-02T23:34:56.145Z,15.60
2022-08-02T23:37:22.906Z,15.60
2022-08-02T23:39:49.590Z,12.80
2022-08-02T23:42:16.615Z,13.40
2022-08-02T23:44:43.330Z,13.00
2022-08-02T23:47:11.216Z,15.00
2022-08-02T23:49:38.149Z,15.80
2022-08-02T23:52:04.846Z,14.67
2022-08-02T23:54:31.409Z,14.00
2022-08-02T23:56:58.048Z,15.00
2022-08-02T23:59:24.850Z,14.80
